createdAt,value
2022-10-23T00:02:09.855Z,15.98
2022-10-23T00:04:37.448Z,13.55
2022-10-23T00:07:05.276Z,12.07
2022-10-23T00:09:32.991Z,13.50
2022-10-23T00:12:00.653Z,17.05
2022-10-23T00:14:28.244Z,18.60
2022-10-23T00:16:57.143Z,16.40
2022-10-23T00:19:24.797Z,15.10
2022-10-23T00:21:52.442Z,15.85
2022-10-23T00:24:20.104Z,17.73
2022-10-23T00:26:50.403Z,15.77
2022-10-23T00:29:18.240Z,18.08
2022-10-23T00:31:45.924Z,17.77
2022-10-23T00:34:14.758Z,16.88
2022-10-23T00:36:42.364Z,18.75
2022-10-23T00:39:09.963Z,17.33
2022-10-23T00:41:37.567Z,17.38
2022-10-23T00:44:09.087Z,16.80
2022-10-23T00:46:38.077Z,14.60
2022-10-23T00:49:08.145Z,15.63
2022-10-23T00:51:41.252Z,15.75
2022-10-23T00:54:23.372Z,14.15
2022-10-23T00:56:52.861Z,17.70
2022-10-23T00:59:20.485Z,15.85
2022-10-23T01:01:48.360Z,17.40
2022-10-23T01:04:16.188Z,16.95
2022-10-23T01:06:52.261Z,21.23
2022-10-23T01:09:29.505Z,19.83
2022-10-23T01:12:01.661Z,17.27
2022-10-23T01:14:36.660Z,20.65
2022-10-23T01:17:08.821Z,17.77
2022-10-23T01:19:52.053Z,16.33
2022-10-23T01:22:37.913Z,15.82
2022-10-23T01:25:19.209Z,18.58
2022-10-23T01:27:53.645Z,17.52
2022-10-23T01:30:21.750Z,14.80
2022-10-23T01:32:56.018Z,15.73
2022-10-23T01:35:29.118Z,17.33
2022-10-23T01:38:07.169Z,16.92
2022-10-23T01:40:38.680Z,15.00
2022-10-23T01:43:12.325Z,16.52
2022-10-23T01:45:43.486Z,14.82
2022-10-23T01:48:19.000Z,15.23
2022-10-23T01:50:47.995Z,20.95
2022-10-23T01:53:15.782Z,15.82
2022-10-23T01:55:44.998Z,15.38
2022-10-23T01:58:21.094Z,20.08
2022-10-23T02:00:51.796Z,16.25
2022-10-23T02:03:21.835Z,16.73
2022-10-23T02:05:49.974Z,18.17
2022-10-23T02:08:17.621Z,17.33
2022-10-23T02:10:52.727Z,17.50
2022-10-23T02:13:27.217Z,18.85
2022-10-23T02:16:03.338Z,15.82
2022-10-23T02:18:37.010Z,18.17
2022-10-23T02:21:10.391Z,16.25
2022-10-23T02:23:41.318Z,17.25
2022-10-23T02:26:14.067Z,16.75
2022-10-23T02:28:50.583Z,19.55
2022-10-23T02:31:22.361Z,15.27
2022-10-23T02:33:50.409Z,17.27
2022-10-23T02:36:19.873Z,17.15
2022-10-23T02:38:48.324Z,19.52
2022-10-23T02:41:26.017Z,15.93
2022-10-23T02:44:12.904Z,16.85
2022-10-23T02:46:51.031Z,18.20
2022-10-23T02:49:27.048Z,18.15
2022-10-23T02:52:03.595Z,15.25
2022-10-23T02:54:44.322Z,17.90
2022-10-23T02:57:20.554Z,17.42
2022-10-23T03:00:01.208Z,15.43
2022-10-23T03:02:36.784Z,16.38
2022-10-23T03:05:07.656Z,13.27
2022-10-23T03:07:35.759Z,16.17
2022-10-23T03:10:08.153Z,17.02
2022-10-23T03:12:37.431Z,14.45
2022-10-23T03:15:09.076Z,19.27
2022-10-23T03:17:36.618Z,16.70
2022-10-23T03:20:04.880Z,18.02
2022-10-23T03:22:32.502Z,17.33
2022-10-23T03:25:01.420Z,18.35
2022-10-23T03:27:31.169Z,17.38
2022-10-23T03:30:00.788Z,14.48
2022-10-23T03:32:32.093Z,15.35
2022-10-23T03:35:00.870Z,19.17
2022-10-23T03:37:28.726Z,15.25
2022-10-23T03:39:56.325Z,15.50
2022-10-23T03:42:23.868Z,14.88
2022-10-23T03:44:51.469Z,15.90
2022-10-23T03:47:19.897Z,13.60
2022-10-23T03:49:48.852Z,20.45
2022-10-23T03:52:16.661Z,16.35
2022-10-23T03:54:44.361Z,13.23
2022-10-23T03:57:12.238Z,12.93
2022-10-23T03:59:39.787Z,15.82
2022-10-23T04:02:08.244Z,12.68
2022-10-23T04:04:35.933Z,13.38
2022-10-23T04:07:04.823Z,14.63
2022-10-23T04:09:33.570Z,16.58
2022-10-23T04:12:01.180Z,15.70
2022-10-23T04:14:29.759Z,20.15
2022-10-23T04:16:57.444Z,17.90
2022-10-23T04:19:25.382Z,15.95
2022-10-23T04:21:57.137Z,13.30
2022-10-23T04:24:27.032Z,17.10
2022-10-23T04:26:54.642Z,16.58
2022-10-23T04:29:24.614Z,16.10
2022-10-23T04:31:52.792Z,11.50
2022-10-23T04:34:20.353Z,17.02
2022-10-23T04:36:47.995Z,14.60
2022-10-23T04:39:15.636Z,12.05
2022-10-23T04:41:44.509Z,13.20
2022-10-23T04:44:12.220Z,13.32
2022-10-23T04:46:39.955Z,15.75
2022-10-23T04:49:07.602Z,14.07
2022-10-23T04:52:00.770Z,13.63
2022-10-23T04:55:01.248Z,12.52
2022-10-23T04:57:34.277Z,16.25
2022-10-23T05:00:10.429Z,12.68
2022-10-23T05:02:55.674Z,11.55
2022-10-23T05:05:23.745Z,13.93
2022-10-23T05:07:58.305Z,15.48
2022-10-23T05:10:50.117Z,13.80
2022-10-23T05:13:20.104Z,14.13
2022-10-23T05:15:49.163Z,10.18
2022-10-23T05:18:22.471Z,13.48
2022-10-23T05:20:52.915Z,11.40
2022-10-23T05:23:24.082Z,12.82
2022-10-23T05:26:03.133Z,12.20
2022-10-23T05:28:33.330Z,12.15
2022-10-23T05:31:03.393Z,12.65
2022-10-23T05:33:32.154Z,10.82
2022-10-23T05:36:02.094Z,10.38
2022-10-23T05:38:34.566Z,12.85
2022-10-23T05:41:07.440Z,11.63
2022-10-23T05:43:36.330Z,10.52
2022-10-23T05:46:23.076Z,11.32
2022-10-23T05:49:10.169Z,12.13
2022-10-23T05:51:56.049Z,13.02
2022-10-23T05:54:40.780Z,12.95
2022-10-23T05:57:24.001Z,12.43
2022-10-23T05:59:54.823Z,12.90
2022-10-23T06:02:42.924Z,11.55
2022-10-23T06:05:33.042Z,14.65
2022-10-23T06:08:18.691Z,14.48
2022-10-23T06:10:49.554Z,12.07
2022-10-23T06:13:17.256Z,12.38
2022-10-23T06:15:46.172Z,10.82
2022-10-23T06:18:18.976Z,11.23
2022-10-23T06:21:01.486Z,12.90
2022-10-23T06:23:32.365Z,8.63
2022-10-23T06:26:14.085Z,12.48
2022-10-23T06:28:54.570Z,8.60
2022-10-23T06:31:26.804Z,10.13
2022-10-23T06:33:55.947Z,10.50
2022-10-23T06:36:24.156Z,11.25
2022-10-23T06:38:56.113Z,8.85
2022-10-23T06:41:28.966Z,9.07
2022-10-23T06:43:56.987Z,11.55
2022-10-23T06:46:47.037Z,7.00
2022-10-23T06:49:15.816Z,10.50
2022-10-23T06:51:47.951Z,9.70
2022-10-23T06:54:17.200Z,9.45
2022-10-23T06:56:50.407Z,12.00
2022-10-23T06:59:22.629Z,9.23
2022-10-23T07:04:23.694Z,8.95
2022-10-23T07:06:51.361Z,8.80
2022-10-23T07:09:25.672Z,8.68
2022-10-23T07:11:53.290Z,9.13
2022-10-23T07:14:27.355Z,9.43
2022-10-23T07:16:57.644Z,15.63
2022-10-23T07:19:27.698Z,14.43
2022-10-23T07:21:59.591Z,12.25
2022-10-23T07:24:40.094Z,10.68
2022-10-23T07:27:23.764Z,15.90
2022-10-23T07:29:56.841Z,11.77
2022-10-23T07:32:28.546Z,10.60
2022-10-23T07:38:03.601Z,11.73
2022-10-23T07:40:34.184Z,9.63
2022-10-23T07:43:03.510Z,12.48
2022-10-23T07:45:31.595Z,11.13
2022-10-23T07:48:06.030Z,14.90
2022-10-23T07:50:50.298Z,13.98
2022-10-23T07:53:20.429Z,15.13
2022-10-23T07:55:55.224Z,15.30
2022-10-23T07:58:23.661Z,13.77
2022-10-23T08:01:14.137Z,12.27
2022-10-23T08:03:43.340Z,13.07
2022-10-23T08:06:11.060Z,12.35
2022-10-23T08:08:39.276Z,11.18
2022-10-23T08:11:07.399Z,11.80
2022-10-23T08:13:45.622Z,10.48
2022-10-23T08:16:13.542Z,11.55
2022-10-23T08:19:06.520Z,9.55
2022-10-23T08:21:36.061Z,8.20
2022-10-23T08:24:05.020Z,8.38
2022-10-23T08:26:32.724Z,5.97
2022-10-23T08:29:01.170Z,7.57
2022-10-23T08:31:29.249Z,8.00
2022-10-23T08:34:31.314Z,9.88
2022-10-23T08:37:00.732Z,7.95
2022-10-23T08:39:29.787Z,7.57
2022-10-23T08:42:05.936Z,8.77
2022-10-23T08:44:37.557Z,9.98
2022-10-23T08:47:09.545Z,7.30
2022-10-23T08:50:01.306Z,9.80
2022-10-23T08:52:40.545Z,9.05
2022-10-23T08:55:18.264Z,7.25
2022-10-23T08:57:56.342Z,7.25
2022-10-23T09:00:23.969Z,9.38
2022-10-23T09:02:53.557Z,7.45
2022-10-23T09:05:28.845Z,7.28
2022-10-23T09:08:05.255Z,6.88
2022-10-23T09:10:52.617Z,5.78
2022-10-23T09:13:41.194Z,5.20
2022-10-23T09:16:18.194Z,10.50
2022-10-23T09:18:48.141Z,6.43
2022-10-23T09:21:17.078Z,4.53
2022-10-23T09:23:44.861Z,6.25
2022-10-23T09:26:16.328Z,4.97
2022-10-23T09:28:48.783Z,5.72
2022-10-23T09:31:18.055Z,7.60
2022-10-23T09:33:55.821Z,7.70
2022-10-23T09:36:28.349Z,5.18
2022-10-23T09:38:58.895Z,5.53
2022-10-23T09:41:30.856Z,6.60
2022-10-23T09:44:19.164Z,8.35
2022-10-23T09:49:19.870Z,9.00
2022-10-23T09:51:57.456Z,9.85
2022-10-23T09:54:25.237Z,8.98
2022-10-23T09:56:58.694Z,8.05
2022-10-23T09:59:29.199Z,7.22
2022-10-23T10:01:58.553Z,6.05
2022-10-23T10:04:46.584Z,5.15
2022-10-23T10:07:20.443Z,8.85
2022-10-23T10:09:50.498Z,6.45
2022-10-23T10:12:45.659Z,7.85
2022-10-23T10:15:23.613Z,6.88
2022-10-23T10:18:09.045Z,5.15
2022-10-23T10:20:50.677Z,5.82
2022-10-23T10:23:28.191Z,7.03
2022-10-23T10:26:03.611Z,7.38
2022-10-23T10:28:44.656Z,5.82
2022-10-23T10:31:20.757Z,7.18
2022-10-23T10:34:00.221Z,6.65
2022-10-23T10:36:41.736Z,8.38
2022-10-23T10:39:21.896Z,6.97
2022-10-23T10:42:05.305Z,6.72
2022-10-23T10:44:54.448Z,6.15
2022-10-23T10:47:25.765Z,7.03
2022-10-23T10:50:07.473Z,6.07
2022-10-23T10:53:04.000Z,7.63
2022-10-23T10:55:36.530Z,6.70
2022-10-23T10:58:11.705Z,6.28
2022-10-23T11:00:39.435Z,6.07
2022-10-23T11:03:20.329Z,7.72
2022-10-23T11:05:50.514Z,5.45
2022-10-23T11:08:22.335Z,10.70
2022-10-23T11:10:55.126Z,7.13
2022-10-23T11:13:28.013Z,4.28
2022-10-23T11:15:59.957Z,7.43
2022-10-23T11:18:30.343Z,6.47
2022-10-23T11:21:10.052Z,7.55
2022-10-23T11:24:00.153Z,6.25
2022-10-23T11:26:46.384Z,6.15
2022-10-23T11:29:37.700Z,5.55
2022-10-23T11:32:27.477Z,7.78
2022-10-23T11:35:22.960Z,11.55
2022-10-23T11:38:36.468Z,7.03
2022-10-23T11:41:25.624Z,6.18
2022-10-23T11:44:53.052Z,5.82
2022-10-23T11:47:42.957Z,8.23
2022-10-23T11:50:52.445Z,7.72
2022-10-23T11:53:45.044Z,7.70
2022-10-23T12:01:00.953Z,11.50
2022-10-23T12:07:46.663Z,6.63
2022-10-23T12:10:45.355Z,8.95
2022-10-23T12:16:52.094Z,6.70
2022-10-23T12:19:41.033Z,4.97
2022-10-23T12:22:23.546Z,4.35
2022-10-23T12:25:10.075Z,7.40
2022-10-23T12:27:59.378Z,4.65
2022-10-23T12:30:42.497Z,4.72
2022-10-23T12:33:31.244Z,6.43
2022-10-23T12:36:23.673Z,4.85
2022-10-23T12:38:56.105Z,5.80
2022-10-23T12:41:34.095Z,5.30
2022-10-23T12:44:06.583Z,6.57
2022-10-23T12:46:36.594Z,7.13
2022-10-23T12:49:15.961Z,5.05
2022-10-23T12:51:46.060Z,5.40
2022-10-23T12:54:19.553Z,4.22
2022-10-23T12:56:48.197Z,6.35
2022-10-23T12:59:19.944Z,5.13
2022-10-23T13:01:52.411Z,6.28
2022-10-23T13:04:29.138Z,6.18
2022-10-23T13:06:59.329Z,8.85
2022-10-23T13:09:32.492Z,7.88
2022-10-23T13:12:22.485Z,6.63
2022-10-23T13:15:03.316Z,12.35
2022-10-23T13:17:36.170Z,8.63
2022-10-23T13:20:24.607Z,16.33
2022-10-23T13:23:00.763Z,6.05
2022-10-23T13:25:33.271Z,10.57
2022-10-23T13:28:15.990Z,11.07
2022-10-23T13:30:46.251Z,7.60
2022-10-23T13:33:25.995Z,11.90
2022-10-23T13:35:59.539Z,35.45
2022-10-23T13:38:32.272Z,9.18
2022-10-23T13:41:01.399Z,4.07
2022-10-23T13:43:32.295Z,10.63
2022-10-23T13:46:00.996Z,12.43
2022-10-23T13:48:29.374Z,10.27
2022-10-23T13:51:11.214Z,10.32
2022-10-23T13:53:39.032Z,9.05
2022-10-23T13:56:07.278Z,15.68
2022-10-23T13:58:34.965Z,10.15
2022-10-23T14:01:02.830Z,10.50
2022-10-23T14:03:33.316Z,8.55
2022-10-23T14:06:02.750Z,4.13
2022-10-23T14:08:30.442Z,8.55
2022-10-23T14:11:00.801Z,7.93
2022-10-23T14:13:28.671Z,6.45
2022-10-23T14:15:56.830Z,5.50
2022-10-23T14:18:28.202Z,6.90
2022-10-23T14:20:59.635Z,5.40
2022-10-23T14:23:29.277Z,4.88
2022-10-23T14:26:02.832Z,7.20
2022-10-23T14:28:33.410Z,6.03
2022-10-23T14:31:05.252Z,4.43
2022-10-23T14:33:33.128Z,5.85
2022-10-23T14:36:00.883Z,7.20
2022-10-23T14:38:30.322Z,8.48
2022-10-23T14:40:58.057Z,6.85
2022-10-23T14:43:26.188Z,5.78
2022-10-23T14:45:54.231Z,8.57
2022-10-23T14:48:21.933Z,5.57
2022-10-23T14:50:53.381Z,7.53
2022-10-23T14:53:20.987Z,8.90
2022-10-23T14:55:50.068Z,8.18
2022-10-23T14:58:17.828Z,6.45
2022-10-23T15:01:10.016Z,7.47
2022-10-23T15:03:37.958Z,6.28
2022-10-23T15:06:07.982Z,4.78
2022-10-23T15:08:47.118Z,11.02
2022-10-23T15:11:19.380Z,4.97
2022-10-23T15:13:47.374Z,3.85
2022-10-23T15:16:20.034Z,8.18
2022-10-23T15:18:50.732Z,7.57
2022-10-23T15:21:18.984Z,6.07
2022-10-23T15:23:47.365Z,6.18
2022-10-23T15:26:22.759Z,4.28
2022-10-23T15:28:54.517Z,6.53
2022-10-23T15:31:50.345Z,4.47
2022-10-23T15:34:20.188Z,6.78
2022-10-23T15:36:51.677Z,8.60
2022-10-23T15:39:21.343Z,7.63
2022-10-23T15:41:55.993Z,5.07
2022-10-23T15:44:27.623Z,6.82
2022-10-23T15:46:56.916Z,7.18
2022-10-23T15:49:25.960Z,7.45
2022-10-23T15:51:54.221Z,4.45
2022-10-23T15:54:22.211Z,8.73
2022-10-23T15:56:53.324Z,7.43
2022-10-23T15:59:23.109Z,5.60
2022-10-23T16:01:50.988Z,9.15
2022-10-23T16:04:19.307Z,6.32
2022-10-23T16:06:47.141Z,10.85
2022-10-23T16:09:15.583Z,6.68
2022-10-23T16:11:44.480Z,5.95
2022-10-23T16:14:16.001Z,7.38
2022-10-23T16:16:46.393Z,7.70
2022-10-23T16:19:14.260Z,8.65
2022-10-23T16:21:42.510Z,6.32
2022-10-23T16:24:10.863Z,5.88
2022-10-23T16:26:39.378Z,5.25
2022-10-23T16:29:09.187Z,5.18
2022-10-23T16:31:38.541Z,6.50
2022-10-23T16:34:06.861Z,6.43
2022-10-23T16:36:35.609Z,8.55
2022-10-23T16:39:31.409Z,7.60
2022-10-23T16:42:34.620Z,6.25
2022-10-23T16:45:11.399Z,6.20
2022-10-23T16:47:40.497Z,5.53
2022-10-23T16:50:08.647Z,8.95
2022-10-23T16:52:36.365Z,4.55
2022-10-23T16:55:04.326Z,4.78
2022-10-23T16:57:32.083Z,6.80
2022-10-23T16:59:59.721Z,6.88
2022-10-23T17:02:27.682Z,6.95
2022-10-23T17:04:56.899Z,6.53
2022-10-23T17:07:24.629Z,5.30
2022-10-23T17:09:52.439Z,8.07
2022-10-23T17:12:20.106Z,6.45
2022-10-23T17:14:47.808Z,6.90
2022-10-23T17:17:15.420Z,6.30
2022-10-23T17:19:46.272Z,6.03
2022-10-23T17:22:16.262Z,6.88
2022-10-23T17:24:47.378Z,6.20
2022-10-23T17:27:17.919Z,5.10
2022-10-23T17:29:45.532Z,6.95
2022-10-23T17:32:13.466Z,7.13
2022-10-23T17:34:41.281Z,5.90
2022-10-23T17:37:10.098Z,8.30
2022-10-23T17:39:39.225Z,7.63
2022-10-23T17:42:07.192Z,6.00
2022-10-23T17:44:35.066Z,10.02
2022-10-23T17:47:03.245Z,6.40
2022-10-23T17:49:31.010Z,4.53
2022-10-23T17:51:59.203Z,5.90
2022-10-23T17:54:27.917Z,6.53
2022-10-23T17:56:57.404Z,5.85
2022-10-23T17:59:25.238Z,5.75
2022-10-23T18:01:53.401Z,7.95
2022-10-23T18:04:22.422Z,7.70
2022-10-23T18:06:52.719Z,6.88
2022-10-23T18:09:21.038Z,6.03
2022-10-23T18:11:49.078Z,5.43
2022-10-23T18:14:19.096Z,5.43
2022-10-23T18:16:47.441Z,5.60
2022-10-23T18:19:15.908Z,7.82
2022-10-23T18:21:43.691Z,6.47
2022-10-23T18:24:11.539Z,7.20
2022-10-23T18:26:41.594Z,5.10
2022-10-23T18:29:10.998Z,4.68
2022-10-23T18:31:40.146Z,5.68
2022-10-23T18:34:11.106Z,8.13
2022-10-23T18:36:40.825Z,4.35
2022-10-23T18:39:10.408Z,10.68
2022-10-23T18:41:39.951Z,6.00
2022-10-23T18:44:09.732Z,6.35
2022-10-23T18:46:37.721Z,5.45
2022-10-23T18:49:06.897Z,5.50
2022-10-23T18:51:35.941Z,4.85
2022-10-23T18:54:06.560Z,4.55
2022-10-23T18:56:35.790Z,6.72
2022-10-23T18:59:07.858Z,3.10
2022-10-23T19:01:36.474Z,4.63
2022-10-23T19:04:06.466Z,7.30
2022-10-23T19:06:37.337Z,4.10
2022-10-23T19:09:08.017Z,7.63
2022-10-23T19:11:36.924Z,4.97
2022-10-23T19:14:05.697Z,4.57
2022-10-23T19:16:39.258Z,8.15
2022-10-23T19:19:24.972Z,5.18
2022-10-23T19:21:58.655Z,5.68
2022-10-23T19:24:34.332Z,4.88
2022-10-23T19:27:03.692Z,6.60
2022-10-23T19:29:32.250Z,6.35
2022-10-23T19:32:00.780Z,6.82
2022-10-23T19:34:32.725Z,5.05
2022-10-23T19:37:00.726Z,3.92
2022-10-23T19:39:28.634Z,5.05
2022-10-23T19:41:57.008Z,5.68
2022-10-23T19:44:24.947Z,6.22
2022-10-23T19:46:53.142Z,4.68
2022-10-23T19:49:23.716Z,7.78
2022-10-23T19:51:52.884Z,3.92
2022-10-23T19:54:21.514Z,6.60
2022-10-23T19:56:49.490Z,5.65
2022-10-23T19:59:17.611Z,3.92
2022-10-23T20:01:47.981Z,5.40
2022-10-23T20:04:20.273Z,5.25
2022-10-23T20:06:48.446Z,8.38
2022-10-23T20:09:17.448Z,7.57
2022-10-23T20:11:45.247Z,6.50
2022-10-23T20:14:13.375Z,4.43
2022-10-23T20:16:43.136Z,4.70
2022-10-23T20:19:12.988Z,11.63
2022-10-23T20:21:43.751Z,7.88
2022-10-23T20:24:12.900Z,5.25
2022-10-23T20:26:42.686Z,5.25
2022-10-23T20:29:10.439Z,6.13
2022-10-23T20:31:39.385Z,6.00
2022-10-23T20:34:07.714Z,5.63
2022-10-23T20:36:39.315Z,7.88
2022-10-23T20:39:10.507Z,5.88
2022-10-23T20:41:38.959Z,9.82
2022-10-23T20:44:09.622Z,6.95
2022-10-23T20:46:37.924Z,6.55
2022-10-23T20:49:05.660Z,6.25
2022-10-23T20:51:33.839Z,6.93
2022-10-23T20:54:01.659Z,7.68
2022-10-23T20:56:32.348Z,5.10
2022-10-23T20:59:01.365Z,8.40
2022-10-23T21:01:31.968Z,5.50
2022-10-23T21:04:01.353Z,4.60
2022-10-23T21:06:41.038Z,5.97
2022-10-23T21:09:18.942Z,4.32
2022-10-23T21:11:47.186Z,5.22
2022-10-23T21:14:14.802Z,6.38
2022-10-23T21:16:44.580Z,5.50
2022-10-23T21:19:14.365Z,5.65
2022-10-23T21:21:42.362Z,6.43
2022-10-23T21:24:14.436Z,6.30
2022-10-23T21:26:42.174Z,5.63
2022-10-23T21:29:18.645Z,5.55
2022-10-23T21:31:52.743Z,7.00
2022-10-23T21:34:23.378Z,3.75
2022-10-23T21:39:39.399Z,4.15
2022-10-23T21:42:07.036Z,3.47
2022-10-23T21:44:36.115Z,4.22
2022-10-23T21:47:05.411Z,3.60
2022-10-23T21:49:33.070Z,3.05
2022-10-23T21:52:00.753Z,7.05
2022-10-23T21:54:28.318Z,4.18
2022-10-23T21:56:56.017Z,5.53
2022-10-23T21:59:27.900Z,3.17
2022-10-23T22:01:58.155Z,2.60
2022-10-23T22:04:27.174Z,4.65
2022-10-23T22:06:54.955Z,3.50
2022-10-23T22:09:23.580Z,4.47
2022-10-23T22:11:51.595Z,4.18
2022-10-23T22:14:19.655Z,2.30
2022-10-23T22:16:47.868Z,1.52
2022-10-23T22:19:18.136Z,1.90
2022-10-23T22:21:47.796Z,1.52
2022-10-23T22:24:15.946Z,2.13
2022-10-23T22:26:46.586Z,4.45
2022-10-23T22:29:16.803Z,2.05
2022-10-23T22:31:48.796Z,2.50
2022-10-23T22:34:34.825Z,2.40
2022-10-23T22:37:10.383Z,1.70
2022-10-23T22:39:37.983Z,1.83
2022-10-23T22:42:05.664Z,2.72
2022-10-23T22:44:33.277Z,1.30
2022-10-23T22:47:00.968Z,3.42
2022-10-23T22:49:28.726Z,2.85
2022-10-23T22:51:56.347Z,1.90
2022-10-23T22:54:25.329Z,2.20
2022-10-23T22:56:52.977Z,2.88
2022-10-23T22:59:20.616Z,3.25
2022-10-23T23:01:49.292Z,3.75
2022-10-23T23:04:37.132Z,3.60
2022-10-23T23:07:05.874Z,4.75
2022-10-23T23:09:36.829Z,1.85
2022-10-23T23:12:04.735Z,6.70
2022-10-23T23:14:32.266Z,3.67
2022-10-23T23:17:00.228Z,4.25
2022-10-23T23:19:28.469Z,2.80
2022-10-23T23:21:57.239Z,5.20
2022-10-23T23:24:25.326Z,4.32
2022-10-23T23:26:54.305Z,3.33
2022-10-23T23:29:21.952Z,3.25
2022-10-23T23:31:49.577Z,3.38
2022-10-23T23:34:17.380Z,2.55
2022-10-23T23:36:45.002Z,2.70
2022-10-23T23:39:12.833Z,4.45
2022-10-23T23:41:40.540Z,4.22
2022-10-23T23:44:10.239Z,4.47
2022-10-23T23:46:37.856Z,4.32
2022-10-23T23:49:05.459Z,4.50
2022-10-23T23:51:33.182Z,3.45
2022-10-23T23:54:00.885Z,4.07
2022-10-23T23:56:29.032Z,6.30
2022-10-23T23:58:56.669Z,3.88
